Newburgh, Indiana
Current Conditions -  °F | °C
As of 12:54 PM on Sunday 21 Dec 2014 (Local Time) from KEVV Reporting Station
Clear Clear  
Wind Chill: 42°   Ceiling: Unl
Heat Index: 42°   Visibility: 10mi
Dew Point: 29°   Wind: 3mph
Humidity: 60%   Direction: NA
Pressure: 30.18"   Gusts: NA
Location:  37.95°N, 87.4°W
Report Text: KEVV 211854Z VRB03KT 10SM CLR 06/M02 A3018 RMK AO2 SLP222 T00561017
Loading
Personal Weather Stations






























Interactive Weather Map New forecast layout! Learn more

10-Day Weather Forecast

Advertisements
Track Severe Weather on mobile